sensor_id;sensor_type;location;lat;lon;timestamp;temperature;humidity
40053;DHT22;25758;48.200;16.338;2023-12-20T00:00:42;3.20;99.90
40053;DHT22;25758;48.200;16.338;2023-12-20T00:06:17;1.30;99.90
40053;DHT22;25758;48.200;16.338;2023-12-20T00:11:13;1.20;99.90
40053;DHT22;25758;48.200;16.338;2023-12-20T00:13:39;1.10;99.90
40053;DHT22;25758;48.200;16.338;2023-12-20T00:16:05;1.20;99.90
40053;DHT22;25758;48.200;16.338;2023-12-20T00:18:30;1.10;99.90
40053;DHT22;25758;48.200;16.338;2023-12-20T00:20:56;2.20;99.90
40053;DHT22;25758;48.200;16.338;2023-12-20T00:23:22;3.50;99.90
40053;DHT22;25758;48.200;16.338;2023-12-20T00:25:48;1.50;99.90
40053;DHT22;25758;48.200;16.338;2023-12-20T00:28:14;3.80;99.90
40053;DHT22;25758;48.200;16.338;2023-12-20T00:30:40;1.50;99.90
40053;DHT22;25758;48.200;16.338;2023-12-20T00:33:05;3.40;99.90
40053;DHT22;25758;48.200;16.338;2023-12-20T00:35:31;3.00;99.90
40053;DHT22;25758;48.200;16.338;2023-12-20T00:37:57;2.20;99.90
40053;DHT22;25758;48.200;16.338;2023-12-20T00:40:24;1.50;99.90
40053;DHT22;25758;48.200;16.338;2023-12-20T00:43:15;1.80;99.90
40053;DHT22;25758;48.200;16.338;2023-12-20T00:45:41;2.00;99.90
40053;DHT22;25758;48.200;16.338;2023-12-20T00:48:06;2.20;99.90
40053;DHT22;25758;48.200;16.338;2023-12-20T00:50:32;2.20;99.90
40053;DHT22;25758;48.200;16.338;2023-12-20T01:00:16;2.60;99.90
40053;DHT22;25758;48.200;16.338;2023-12-20T01:02:41;2.80;99.90
40053;DHT22;25758;48.200;16.338;2023-12-20T01:05:13;2.90;99.90
40053;DHT22;25758;48.200;16.338;2023-12-20T01:11:14;3.00;99.90
40053;DHT22;25758;48.200;16.338;2023-12-20T01:13:40;3.00;99.90
40053;DHT22;25758;48.200;16.338;2023-12-20T01:16:05;3.10;99.90
40053;DHT22;25758;48.200;16.338;2023-12-20T01:18:31;3.20;99.90
40053;DHT22;25758;48.200;16.338;2023-12-20T01:21:01;3.20;99.90
40053;DHT22;25758;48.200;16.338;2023-12-20T01:28:20;3.20;99.90
40053;DHT22;25758;48.200;16.338;2023-12-20T01:30:46;3.30;99.90
40053;DHT22;25758;48.200;16.338;2023-12-20T01:33:12;3.20;99.90
40053;DHT22;25758;48.200;16.338;2023-12-20T01:35:41;3.40;99.90
40053;DHT22;25758;48.200;16.338;2023-12-20T01:38:31;4.20;99.90
40053;DHT22;25758;48.200;16.338;2023-12-20T01:45:49;3.50;99.90
40053;DHT22;25758;48.200;16.338;2023-12-20T01:48:16;3.40;99.90
40053;DHT22;25758;48.200;16.338;2023-12-20T01:53:10;3.60;99.90
40053;DHT22;25758;48.200;16.338;2023-12-20T01:55:39;3.50;99.90
40053;DHT22;25758;48.200;16.338;2023-12-20T01:58:07;3.20;99.90
40053;DHT22;25758;48.200;16.338;2023-12-20T02:00:33;2.80;99.90
40053;DHT22;25758;48.200;16.338;2023-12-20T02:03:01;2.90;99.90
40053;DHT22;25758;48.200;16.338;2023-12-20T02:10:30;2.80;99.90
40053;DHT22;25758;48.200;16.338;2023-12-20T02:12:56;2.70;99.90
40053;DHT22;25758;48.200;16.338;2023-12-20T02:15:22;2.40;99.90
40053;DHT22;25758;48.200;16.338;2023-12-20T02:25:06;2.60;99.90
40053;DHT22;25758;48.200;16.338;2023-12-20T02:27:31;2.50;99.90
40053;DHT22;25758;48.200;16.338;2023-12-20T02:29:57;2.70;99.90
40053;DHT22;25758;48.200;16.338;2023-12-20T02:32:24;2.80;99.90
40053;DHT22;25758;48.200;16.338;2023-12-20T02:34:54;2.50;99.90
40053;DHT22;25758;48.200;16.338;2023-12-20T02:42:17;2.80;99.90
40053;DHT22;25758;48.200;16.338;2023-12-20T02:47:09;2.60;99.90
40053;DHT22;25758;48.200;16.338;2023-12-20T02:49:34;2.50;99.90
40053;DHT22;25758;48.200;16.338;2023-12-20T02:54:26;2.60;99.90
40053;DHT22;25758;48.200;16.338;2023-12-20T03:01:45;3.30;99.90
40053;DHT22;25758;48.200;16.338;2023-12-20T03:04:12;4.40;99.90
40053;DHT22;25758;48.200;16.338;2023-12-20T03:06:38;4.00;99.90
40053;DHT22;25758;48.200;16.338;2023-12-20T03:13:56;3.30;99.90
40053;DHT22;25758;48.200;16.338;2023-12-20T03:18:48;3.40;99.90
40053;DHT22;25758;48.200;16.338;2023-12-20T03:21:15;3.40;99.90
40053;DHT22;25758;48.200;16.338;2023-12-20T03:23:41;3.20;99.90
40053;DHT22;25758;48.200;16.338;2023-12-20T03:31:07;3.30;99.90
40053;DHT22;25758;48.200;16.338;2023-12-20T03:33:32;3.50;99.90
40053;DHT22;25758;48.200;16.338;2023-12-20T03:35:58;3.40;99.90
40053;DHT22;25758;48.200;16.338;2023-12-20T03:38:23;3.40;99.90
40053;DHT22;25758;48.200;16.338;2023-12-20T03:40:55;3.40;99.90
40053;DHT22;25758;48.200;16.338;2023-12-20T03:46:47;3.50;99.90
40053;DHT22;25758;48.200;16.338;2023-12-20T03:49:32;3.40;99.90
40053;DHT22;25758;48.200;16.338;2023-12-20T03:51:57;3.40;99.90
40053;DHT22;25758;48.200;16.338;2023-12-20T03:54:24;3.50;99.90
40053;DHT22;25758;48.200;16.338;2023-12-20T03:56:50;4.00;99.90
40053;DHT22;25758;48.200;16.338;2023-12-20T04:01:45;3.60;99.90
40053;DHT22;25758;48.200;16.338;2023-12-20T04:06:38;3.80;99.90
40053;DHT22;25758;48.200;16.338;2023-12-20T04:11:29;3.80;99.90
40053;DHT22;25758;48.200;16.338;2023-12-20T04:13:55;3.80;99.90
40053;DHT22;25758;48.200;16.338;2023-12-20T04:21:40;3.00;99.90
40053;DHT22;25758;48.200;16.338;2023-12-20T04:24:06;2.90;99.90
40053;DHT22;25758;48.200;16.338;2023-12-20T04:29:00;2.90;99.90
40053;DHT22;25758;48.200;16.338;2023-12-20T04:31:25;2.90;99.90
40053;DHT22;25758;48.200;16.338;2023-12-20T04:33:51;3.30;99.90
40053;DHT22;25758;48.200;16.338;2023-12-20T04:36:21;4.30;99.90
40053;DHT22;25758;48.200;16.338;2023-12-20T04:41:13;3.70;99.90
40053;DHT22;25758;48.200;16.338;2023-12-20T04:48:33;3.80;99.90
40053;DHT22;25758;48.200;16.338;2023-12-20T04:53:24;4.70;99.90
40053;DHT22;25758;48.200;16.338;2023-12-20T04:55:50;4.80;99.90
40053;DHT22;25758;48.200;16.338;2023-12-20T04:58:16;5.50;99.90
40053;DHT22;25758;48.200;16.338;2023-12-20T05:00:41;5.40;99.90
40053;DHT22;25758;48.200;16.338;2023-12-20T05:03:07;5.90;99.90
40053;DHT22;25758;48.200;16.338;2023-12-20T05:05:39;5.90;99.90
40053;DHT22;25758;48.200;16.338;2023-12-20T05:08:09;5.90;99.90
40053;DHT22;25758;48.200;16.338;2023-12-20T05:10:35;6.20;99.90
40053;DHT22;25758;48.200;16.338;2023-12-20T05:18:34;6.60;99.90
40053;DHT22;25758;48.200;16.338;2023-12-20T05:21:00;6.90;99.90
40053;DHT22;25758;48.200;16.338;2023-12-20T05:23:28;6.80;99.90
40053;DHT22;25758;48.200;16.338;2023-12-20T05:29:29;6.90;99.90
40053;DHT22;25758;48.200;16.338;2023-12-20T05:35:19;7.20;99.90
40053;DHT22;25758;48.200;16.338;2023-12-20T05:37:45;7.20;99.90
40053;DHT22;25758;48.200;16.338;2023-12-20T05:40:11;7.20;99.90
40053;DHT22;25758;48.200;16.338;2023-12-20T05:42:37;7.30;99.90
40053;DHT22;25758;48.200;16.338;2023-12-20T05:45:06;7.30;99.90
40053;DHT22;25758;48.200;16.338;2023-12-20T05:47:35;7.30;99.90
40053;DHT22;25758;48.200;16.338;2023-12-20T05:50:06;7.30;99.90
40053;DHT22;25758;48.200;16.338;2023-12-20T05:52:31;7.20;99.90
40053;DHT22;25758;48.200;16.338;2023-12-20T05:54:57;7.40;99.90
40053;DHT22;25758;48.200;16.338;2023-12-20T05:57:57;7.30;99.90
40053;DHT22;25758;48.200;16.338;2023-12-20T06:03:33;7.60;99.90
40053;DHT22;25758;48.200;16.338;2023-12-20T06:05:58;7.50;99.90
40053;DHT22;25758;48.200;16.338;2023-12-20T06:08:35;7.50;99.90
40053;DHT22;25758;48.200;16.338;2023-12-20T06:11:01;7.60;99.90
40053;DHT22;25758;48.200;16.338;2023-12-20T06:13:26;7.60;99.90
40053;DHT22;25758;48.200;16.338;2023-12-20T06:15:54;7.70;99.90
40053;DHT22;25758;48.200;16.338;2023-12-20T06:18:19;7.90;99.90
40053;DHT22;25758;48.200;16.338;2023-12-20T06:20:45;7.90;99.90
40053;DHT22;25758;48.200;16.338;2023-12-20T06:23:11;7.90;99.90
40053;DHT22;25758;48.200;16.338;2023-12-20T06:25:39;8.00;99.90
40053;DHT22;25758;48.200;16.338;2023-12-20T06:28:05;8.00;99.90
40053;DHT22;25758;48.200;16.338;2023-12-20T06:30:31;8.00;99.90
40053;DHT22;25758;48.200;16.338;2023-12-20T06:32:58;8.00;99.90
40053;DHT22;25758;48.200;16.338;2023-12-20T06:35:24;8.10;99.90
40053;DHT22;25758;48.200;16.338;2023-12-20T06:37:50;8.00;99.90
40053;DHT22;25758;48.200;16.338;2023-12-20T06:40:16;8.00;99.90
40053;DHT22;25758;48.200;16.338;2023-12-20T06:42:41;8.00;99.90
40053;DHT22;25758;48.200;16.338;2023-12-20T06:45:07;8.00;99.90
40053;DHT22;25758;48.200;16.338;2023-12-20T06:47:33;8.00;99.90
40053;DHT22;25758;48.200;16.338;2023-12-20T06:50:16;8.10;99.90
40053;DHT22;25758;48.200;16.338;2023-12-20T06:52:42;8.20;99.90
40053;DHT22;25758;48.200;16.338;2023-12-20T06:55:07;8.20;99.90
40053;DHT22;25758;48.200;16.338;2023-12-20T06:57:33;8.20;99.90
40053;DHT22;25758;48.200;16.338;2023-12-20T06:59:58;8.30;99.90
40053;DHT22;25758;48.200;16.338;2023-12-20T07:02:24;8.20;99.90
40053;DHT22;25758;48.200;16.338;2023-12-20T07:04:50;8.20;99.90
40053;DHT22;25758;48.200;16.338;2023-12-20T07:07:15;8.20;99.90
40053;DHT22;25758;48.200;16.338;2023-12-20T07:09:41;8.30;99.90
40053;DHT22;25758;48.200;16.338;2023-12-20T07:12:08;8.40;99.90
40053;DHT22;25758;48.200;16.338;2023-12-20T07:14:46;7.10;99.90
40053;DHT22;25758;48.200;16.338;2023-12-20T07:17:12;8.40;99.90
40053;DHT22;25758;48.200;16.338;2023-12-20T07:19:40;8.40;99.90
40053;DHT22;25758;48.200;16.338;2023-12-20T07:22:06;8.40;99.90
40053;DHT22;25758;48.200;16.338;2023-12-20T07:24:32;8.40;99.90
40053;DHT22;25758;48.200;16.338;2023-12-20T07:27:02;8.40;99.90
40053;DHT22;25758;48.200;16.338;2023-12-20T07:29:27;8.30;99.90
40053;DHT22;25758;48.200;16.338;2023-12-20T07:31:54;8.20;99.90
40053;DHT22;25758;48.200;16.338;2023-12-20T07:34:20;8.10;99.90
40053;DHT22;25758;48.200;16.338;2023-12-20T07:36:46;8.00;99.90
40053;DHT22;25758;48.200;16.338;2023-12-20T07:39:12;8.00;99.90
40053;DHT22;25758;48.200;16.338;2023-12-20T07:41:38;8.00;99.90
40053;DHT22;25758;48.200;16.338;2023-12-20T07:44:04;7.90;99.90
40053;DHT22;25758;48.200;16.338;2023-12-20T07:46:30;7.90;99.90
40053;DHT22;25758;48.200;16.338;2023-12-20T07:48:56;8.20;99.90
40053;DHT22;25758;48.200;16.338;2023-12-20T07:51:22;8.20;99.90
40053;DHT22;25758;48.200;16.338;2023-12-20T07:53:51;8.20;99.90
40053;DHT22;25758;48.200;16.338;2023-12-20T07:56:34;8.00;99.90
40053;DHT22;25758;48.200;16.338;2023-12-20T07:59:00;7.90;99.90
40053;DHT22;25758;48.200;16.338;2023-12-20T08:01:26;7.90;99.90
40053;DHT22;25758;48.200;16.338;2023-12-20T08:04:08;7.80;99.90
40053;DHT22;25758;48.200;16.338;2023-12-20T08:06:52;7.80;99.90
40053;DHT22;25758;48.200;16.338;2023-12-20T08:11:48;7.80;99.90
40053;DHT22;25758;48.200;16.338;2023-12-20T08:14:23;7.80;99.90
40053;DHT22;25758;48.200;16.338;2023-12-20T08:16:50;7.80;99.90
40053;DHT22;25758;48.200;16.338;2023-12-20T08:19:27;7.80;99.90
40053;DHT22;25758;48.200;16.338;2023-12-20T08:24:19;7.80;99.90
40053;DHT22;25758;48.200;16.338;2023-12-20T09:23:01;7.40;99.90
40053;DHT22;25758;48.200;16.338;2023-12-20T09:50:26;7.30;99.90
40053;DHT22;25758;48.200;16.338;2023-12-20T09:52:52;7.10;99.90
40053;DHT22;25758;48.200;16.338;2023-12-20T09:55:19;7.10;99.90
40053;DHT22;25758;48.200;16.338;2023-12-20T09:57:46;6.90;99.90
40053;DHT22;25758;48.200;16.338;2023-12-20T10:03:54;6.80;99.90
40053;DHT22;25758;48.200;16.338;2023-12-20T10:06:40;6.80;99.90
40053;DHT22;25758;48.200;16.338;2023-12-20T10:09:06;6.80;99.90
40053;DHT22;25758;48.200;16.338;2023-12-20T10:11:31;6.80;99.90
40053;DHT22;25758;48.200;16.338;2023-12-20T10:14:00;6.70;99.90
40053;DHT22;25758;48.200;16.338;2023-12-20T10:19:48;6.70;99.90
40053;DHT22;25758;48.200;16.338;2023-12-20T10:25:57;6.60;99.90
40053;DHT22;25758;48.200;16.338;2023-12-20T10:28:51;6.70;99.90
40053;DHT22;25758;48.200;16.338;2023-12-20T10:34:08;6.60;99.90
40053;DHT22;25758;48.200;16.338;2023-12-20T10:45:56;6.70;99.90
40053;DHT22;25758;48.200;16.338;2023-12-20T10:57:51;6.70;99.90
40053;DHT22;25758;48.200;16.338;2023-12-20T11:14:08;6.80;99.90
40053;DHT22;25758;48.200;16.338;2023-12-20T11:20:34;6.90;99.90
40053;DHT22;25758;48.200;16.338;2023-12-20T11:23:00;7.00;99.90
40053;DHT22;25758;48.200;16.338;2023-12-20T11:25:26;7.20;99.90
40053;DHT22;25758;48.200;16.338;2023-12-20T11:28:09;7.20;99.90
40053;DHT22;25758;48.200;16.338;2023-12-20T11:31:00;7.20;99.90
40053;DHT22;25758;48.200;16.338;2023-12-20T11:33:35;7.20;99.90
40053;DHT22;25758;48.200;16.338;2023-12-20T11:43:29;7.10;99.90
40053;DHT22;25758;48.200;16.338;2023-12-20T11:59:54;7.30;99.90
40053;DHT22;25758;48.200;16.338;2023-12-20T12:04:48;7.30;99.90
40053;DHT22;25758;48.200;16.338;2023-12-20T12:10:40;7.40;99.90
40053;DHT22;25758;48.200;16.338;2023-12-20T12:13:06;7.50;99.90
40053;DHT22;25758;48.200;16.338;2023-12-20T12:16:08;7.50;99.90
40053;DHT22;25758;48.200;16.338;2023-12-20T12:18:43;7.50;99.90
40053;DHT22;25758;48.200;16.338;2023-12-20T12:21:20;7.50;99.90
40053;DHT22;25758;48.200;16.338;2023-12-20T12:23:46;7.50;99.90
40053;DHT22;25758;48.200;16.338;2023-12-20T12:26:11;7.60;99.90
40053;DHT22;25758;48.200;16.338;2023-12-20T12:49:43;7.60;99.90
40053;DHT22;25758;48.200;16.338;2023-12-20T12:52:09;7.60;99.90
40053;DHT22;25758;48.200;16.338;2023-12-20T13:00:15;7.50;99.90
40053;DHT22;25758;48.200;16.338;2023-12-20T13:02:41;7.50;99.90
40053;DHT22;25758;48.200;16.338;2023-12-20T13:05:08;7.50;99.90
40053;DHT22;25758;48.200;16.338;2023-12-20T13:07:39;7.50;99.90
40053;DHT22;25758;48.200;16.338;2023-12-20T13:10:13;7.50;99.90
40053;DHT22;25758;48.200;16.338;2023-12-20T13:12:42;7.50;99.90
40053;DHT22;25758;48.200;16.338;2023-12-20T13:15:07;7.50;99.90
40053;DHT22;25758;48.200;16.338;2023-12-20T13:17:35;7.50;99.90
40053;DHT22;25758;48.200;16.338;2023-12-20T13:35:15;7.40;99.90
40053;DHT22;25758;48.200;16.338;2023-12-20T13:44:53;7.50;99.90
40053;DHT22;25758;48.200;16.338;2023-12-20T13:47:23;7.50;99.90
40053;DHT22;25758;48.200;16.338;2023-12-20T13:49:49;7.50;99.90
40053;DHT22;25758;48.200;16.338;2023-12-20T13:52:15;7.40;99.90
40053;DHT22;25758;48.200;16.338;2023-12-20T13:55:08;7.40;99.90
40053;DHT22;25758;48.200;16.338;2023-12-20T13:57:52;7.40;99.90
40053;DHT22;25758;48.200;16.338;2023-12-20T14:00:18;7.40;99.90
40053;DHT22;25758;48.200;16.338;2023-12-20T14:02:44;7.40;99.90
40053;DHT22;25758;48.200;16.338;2023-12-20T14:28:55;7.30;99.90
40053;DHT22;25758;48.200;16.338;2023-12-20T14:31:21;7.30;99.90
40053;DHT22;25758;48.200;16.338;2023-12-20T14:34:09;7.30;99.90
40053;DHT22;25758;48.200;16.338;2023-12-20T14:39:59;7.20;99.90
40053;DHT22;25758;48.200;16.338;2023-12-20T14:43:00;7.10;99.90
40053;DHT22;25758;48.200;16.338;2023-12-20T14:45:29;7.10;99.90
40053;DHT22;25758;48.200;16.338;2023-12-20T14:47:55;7.20;99.90
40053;DHT22;25758;48.200;16.338;2023-12-20T14:53:47;7.20;99.90
40053;DHT22;25758;48.200;16.338;2023-12-20T14:56:13;7.20;99.90
40053;DHT22;25758;48.200;16.338;2023-12-20T14:58:39;7.20;99.90
40053;DHT22;25758;48.200;16.338;2023-12-20T15:01:09;7.20;99.90
40053;DHT22;25758;48.200;16.338;2023-12-20T15:03:35;7.20;99.90
40053;DHT22;25758;48.200;16.338;2023-12-20T15:06:00;7.30;99.90
40053;DHT22;25758;48.200;16.338;2023-12-20T15:11:50;7.20;99.90
40053;DHT22;25758;48.200;16.338;2023-12-20T15:14:16;7.20;99.90
40053;DHT22;25758;48.200;16.338;2023-12-20T15:17:02;7.10;99.90
40053;DHT22;25758;48.200;16.338;2023-12-20T15:19:27;7.10;99.90
40053;DHT22;25758;48.200;16.338;2023-12-20T15:21:53;7.20;99.90
40053;DHT22;25758;48.200;16.338;2023-12-20T15:24:19;7.10;99.90
40053;DHT22;25758;48.200;16.338;2023-12-20T15:26:51;7.20;99.90
40053;DHT22;25758;48.200;16.338;2023-12-20T15:29:47;7.10;99.90
40053;DHT22;25758;48.200;16.338;2023-12-20T15:32:20;7.10;99.90
40053;DHT22;25758;48.200;16.338;2023-12-20T15:34:46;7.20;99.90
40053;DHT22;25758;48.200;16.338;2023-12-20T15:37:12;7.20;99.90
40053;DHT22;25758;48.200;16.338;2023-12-20T15:40:17;7.30;99.90
40053;DHT22;25758;48.200;16.338;2023-12-20T15:43:19;7.30;99.90
40053;DHT22;25758;48.200;16.338;2023-12-20T15:45:44;7.30;99.90
40053;DHT22;25758;48.200;16.338;2023-12-20T15:48:11;7.30;99.90
40053;DHT22;25758;48.200;16.338;2023-12-20T16:01:18;7.20;99.90
40053;DHT22;25758;48.200;16.338;2023-12-20T16:03:43;7.30;99.90
40053;DHT22;25758;48.200;16.338;2023-12-20T16:06:09;7.30;99.90
40053;DHT22;25758;48.200;16.338;2023-12-20T16:08:42;7.20;99.90
40053;DHT22;25758;48.200;16.338;2023-12-20T16:11:08;7.20;99.90
40053;DHT22;25758;48.200;16.338;2023-12-20T16:13:33;7.20;99.90
40053;DHT22;25758;48.200;16.338;2023-12-20T16:16:03;7.10;99.90
40053;DHT22;25758;48.200;16.338;2023-12-20T16:19:00;7.20;99.90
40053;DHT22;25758;48.200;16.338;2023-12-20T16:21:26;7.10;99.90
40053;DHT22;25758;48.200;16.338;2023-12-20T16:23:52;7.10;99.90
40053;DHT22;25758;48.200;16.338;2023-12-20T16:26:42;7.00;99.90
40053;DHT22;25758;48.200;16.338;2023-12-20T16:29:09;7.10;99.90
40053;DHT22;25758;48.200;16.338;2023-12-20T16:31:36;7.10;99.90
40053;DHT22;25758;48.200;16.338;2023-12-20T16:34:02;7.00;99.90
40053;DHT22;25758;48.200;16.338;2023-12-20T16:39:44;7.00;99.90
40053;DHT22;25758;48.200;16.338;2023-12-20T16:42:09;7.00;99.90
40053;DHT22;25758;48.200;16.338;2023-12-20T17:44:27;6.50;99.90
40053;DHT22;25758;48.200;16.338;2023-12-20T17:46:52;6.40;99.90
40053;DHT22;25758;48.200;16.338;2023-12-20T17:49:18;6.40;99.90
40053;DHT22;25758;48.200;16.338;2023-12-20T17:51:44;6.30;99.90
40053;DHT22;25758;48.200;16.338;2023-12-20T17:54:12;6.20;99.90
40053;DHT22;25758;48.200;16.338;2023-12-20T17:56:38;6.30;99.90
40053;DHT22;25758;48.200;16.338;2023-12-20T17:59:18;6.30;99.90
40053;DHT22;25758;48.200;16.338;2023-12-20T18:02:00;6.30;99.90
